Time,TemperatureF,DewpointF,PressureIn,WindDirection,WindDirectionDegrees,WindSpeedMPH,WindSpeedGustMPH,Humidity,HourlyPrecipIn,Conditions,Clouds,dailyrainin,SoftwareType,DateUTC
2016-08-30 00:00:00,79.0,59.9,29.94,ESE,113,1.0,2.0,52,0.00,,,0.00,Wunderground v.1.15,2016-08-29 21:00:00,
2016-08-30 00:05:00,79.2,60.1,29.94,ESE,113,1.0,2.0,52,0.00,,,0.00,Wunderground v.1.15,2016-08-29 21:05:00,
2016-08-30 00:15:00,79.0,59.3,29.94,ESE,113,0.0,2.0,51,0.00,,,0.00,Wunderground v.1.15,2016-08-29 21:15:00,
2016-08-30 00:25:00,79.0,59.3,29.94,ESE,113,0.0,2.0,51,0.00,,,0.00,Wunderground v.1.15,2016-08-29 21:25:00,
2016-08-30 00:40:00,79.0,59.3,29.94,ESE,113,0.0,2.0,51,0.00,,,0.00,Wunderground v.1.15,2016-08-29 21:40:00,
2016-08-30 00:50:00,79.0,59.3,29.94,ESE,113,0.0,2.0,51,0.00,,,0.00,Wunderground v.1.15,2016-08-29 21:50:00,
2016-08-30 00:55:00,79.0,59.0,29.94,ESE,113,0.0,-999.0,51,-99.99,,,0.00,weatherlink.com 1.10,2016-08-29 21:55:00,
2016-08-30 01:04:00,79.0,60.4,29.94,ESE,113,0.0,2.0,53,0.00,,,0.00,Wunderground v.1.15,2016-08-29 22:04:00,
2016-08-30 01:09:00,79.0,60.0,29.94,ESE,113,0.0,-999.0,53,-99.99,,,0.00,weatherlink.com 1.10,2016-08-29 22:09:00,
2016-08-30 01:15:00,79.0,60.4,29.94,ESE,113,0.0,2.0,53,0.00,,,0.00,Wunderground v.1.15,2016-08-29 22:15:00,
2016-08-30 01:25:00,78.8,60.7,29.94,ESE,113,0.0,2.0,54,0.00,,,0.00,Wunderground v.1.15,2016-08-29 22:25:00,
2016-08-30 01:35:00,78.8,60.7,29.94,ESE,113,0.0,2.0,54,0.00,,,0.00,Wunderground v.1.15,2016-08-29 22:35:00,
2016-08-30 01:40:00,78.6,60.6,29.94,ESE,113,0.0,2.0,54,0.00,,,0.00,Wunderground v.1.15,2016-08-29 22:40:00,
2016-08-30 01:49:00,78.6,61.1,29.93,ESE,113,0.0,2.0,55,0.00,,,0.00,Wunderground v.1.15,2016-08-29 22:49:00,
2016-08-30 01:55:00,78.6,61.1,29.93,ESE,113,0.0,2.0,55,0.00,,,0.00,Wunderground v.1.15,2016-08-29 22:55:00,
2016-08-30 02:05:00,78.5,61.0,29.93,ESE,113,0.0,2.0,55,0.00,,,0.00,Wunderground v.1.15,2016-08-29 23:05:00,
2016-08-30 02:10:00,78.5,61.0,29.93,ESE,113,0.0,-999.0,55,-99.99,,,0.00,weatherlink.com 1.10,2016-08-29 23:10:00,
2016-08-30 02:19:00,78.5,61.0,29.93,ESE,113,0.0,2.0,55,0.00,,,0.00,Wunderground v.1.15,2016-08-29 23:19:00,
2016-08-30 02:25:00,78.5,61.0,29.93,ESE,113,0.0,2.0,55,0.00,,,0.00,Wunderground v.1.15,2016-08-29 23:25:00,
2016-08-30 02:35:00,78.3,60.8,29.93,ESE,113,0.0,2.0,55,0.00,,,0.00,Wunderground v.1.15,2016-08-29 23:35:00,
2016-08-30 02:40:00,78.3,60.8,29.93,ESE,113,0.0,2.0,55,0.00,,,0.00,Wunderground v.1.15,2016-08-29 23:40:00,
2016-08-30 02:50:00,78.3,60.8,29.92,NNW,339,0.0,2.0,55,0.00,,,0.00,Wunderground v.1.15,2016-08-29 23:50:00,
2016-08-30 02:55:00,78.3,61.3,29.92,NNW,340,0.0,2.0,56,0.00,,,0.00,Wunderground v.1.15,2016-08-29 23:55:00,
2016-08-30 03:00:00,78.3,61.8,29.92,North,0,0.0,2.0,57,0.00,,,0.00,Wunderground v.1.15,2016-08-30 00:00:00,
2016-08-30 03:05:00,78.1,61.6,29.92,North,0,0.0,2.0,57,0.00,,,0.00,Wunderground v.1.15,2016-08-30 00:05:00,
2016-08-30 03:10:00,78.1,62.0,29.92,North,0,0.0,-999.0,57,-99.99,,,0.00,weatherlink.com 1.10,2016-08-30 00:10:00,
2016-08-30 03:20:00,77.9,61.9,29.92,North,0,0.0,2.0,58,0.00,,,0.00,Wunderground v.1.15,2016-08-30 00:20:00,
2016-08-30 03:25:00,77.7,61.7,29.92,North,0,0.0,2.0,58,0.00,,,0.00,Wunderground v.1.15,2016-08-30 00:25:00,
2016-08-30 03:35:00,77.7,61.7,29.92,North,0,0.0,2.0,58,0.00,,,0.00,Wunderground v.1.15,2016-08-30 00:35:00,
2016-08-30 03:41:00,77.6,62.0,29.92,North,0,0.0,-999.0,58,-99.99,,,0.00,weatherlink.com 1.10,2016-08-30 00:41:00,
2016-08-30 03:50:00,77.6,62.1,29.92,North,0,0.0,2.0,59,0.00,,,0.00,Wunderground v.1.15,2016-08-30 00:50:00,
2016-08-30 03:55:00,77.7,62.2,29.92,North,0,0.0,2.0,59,0.00,,,0.00,Wunderground v.1.15,2016-08-30 00:55:00,
2016-08-30 04:05:00,77.6,62.6,29.91,North,0,0.0,2.0,60,0.00,,,0.00,Wunderground v.1.15,2016-08-30 01:05:00,
2016-08-30 04:10:00,77.6,63.0,29.91,North,356,0.0,-999.0,60,-99.99,,,0.00,weatherlink.com 1.10,2016-08-30 01:10:00,
2016-08-30 04:19:00,77.4,62.9,29.91,North,0,0.0,2.0,61,0.00,,,0.00,Wunderground v.1.15,2016-08-30 01:19:00,
2016-08-30 04:25:00,77.4,62.9,29.91,NNW,335,0.0,2.0,61,0.00,,,0.00,Wunderground v.1.15,2016-08-30 01:25:00,
2016-08-30 04:35:00,77.4,62.4,29.91,NNW,344,0.0,2.0,60,0.00,,,0.00,Wunderground v.1.15,2016-08-30 01:35:00,
2016-08-30 04:41:00,77.4,62.0,29.91,NNW,340,0.0,-999.0,60,-99.99,,,0.00,weatherlink.com 1.10,2016-08-30 01:41:00,
2016-08-30 04:49:00,77.2,62.2,29.91,NNW,337,0.0,3.0,60,0.00,,,0.00,Wunderground v.1.15,2016-08-30 01:49:00,
2016-08-30 04:55:00,77.2,61.8,29.91,NNW,342,2.0,3.0,59,0.00,,,0.00,Wunderground v.1.15,2016-08-30 01:55:00,
2016-08-30 05:05:00,77.0,61.6,29.91,NW,322,4.0,5.0,59,0.00,,,0.00,Wunderground v.1.15,2016-08-30 02:05:00,
2016-08-30 05:20:00,76.7,60.8,29.91,NNW,336,3.0,3.0,58,0.00,,,0.00,Wunderground v.1.15,2016-08-30 02:20:00,
2016-08-30 05:26:00,76.5,61.0,29.91,North,359,6.0,-999.0,58,-99.99,,,0.00,weatherlink.com 1.10,2016-08-30 02:26:00,
2016-08-30 05:35:00,76.5,60.6,29.91,North,352,2.0,3.0,58,0.00,,,0.00,Wunderground v.1.15,2016-08-30 02:35:00,
2016-08-30 05:42:00,76.3,60.0,29.91,NNW,346,3.0,-999.0,58,-99.99,,,0.00,weatherlink.com 1.10,2016-08-30 02:42:00,
2016-08-30 05:50:00,76.1,60.2,29.91,NNE,18,3.0,3.0,58,0.00,,,0.00,Wunderground v.1.15,2016-08-30 02:50:00,
2016-08-30 05:56:00,76.0,59.0,29.91,North,0,3.0,-999.0,56,-99.99,,,0.00,weatherlink.com 1.10,2016-08-30 02:56:00,
2016-08-30 06:05:00,76.0,59.2,29.91,North,359,2.0,3.0,56,0.00,,,0.00,Wunderground v.1.15,2016-08-30 03:05:00,
2016-08-30 06:11:00,76.1,60.0,29.91,North,359,1.0,-999.0,57,-99.99,,,0.00,weatherlink.com 1.10,2016-08-30 03:11:00,
2016-08-30 06:20:00,76.1,60.2,29.91,North,359,1.0,1.0,58,0.00,,,0.00,Wunderground v.1.15,2016-08-30 03:20:00,
2016-08-30 06:27:00,76.1,60.0,29.91,North,359,0.0,-999.0,58,-99.99,,,0.00,weatherlink.com 1.10,2016-08-30 03:27:00,
2016-08-30 06:35:00,76.1,59.8,29.92,North,359,0.0,2.0,57,0.00,,,0.00,Wunderground v.1.15,2016-08-30 03:35:00,
2016-08-30 06:42:00,76.0,60.0,29.92,North,359,1.0,-999.0,57,-99.99,,,0.00,weatherlink.com 1.10,2016-08-30 03:42:00,
2016-08-30 06:50:00,76.0,59.7,29.92,North,359,1.0,1.0,57,0.00,,,0.00,Wunderground v.1.15,2016-08-30 03:50:00,
2016-08-30 06:55:00,76.1,59.8,29.92,North,359,1.0,2.0,57,0.00,,,0.00,Wunderground v.1.15,2016-08-30 03:55:00,
2016-08-30 07:05:00,76.1,59.8,29.92,North,359,0.0,2.0,57,0.00,,,0.00,Wunderground v.1.15,2016-08-30 04:05:00,
2016-08-30 07:10:00,76.0,59.2,29.92,North,359,0.0,2.0,56,0.00,,,0.00,Wunderground v.1.15,2016-08-30 04:10:00,
2016-08-30 07:15:00,76.1,59.3,29.92,North,359,0.0,2.0,56,0.00,,,0.00,Wunderground v.1.15,2016-08-30 04:15:00,
2016-08-30 07:20:00,76.1,59.3,29.92,North,359,0.0,2.0,56,0.00,,,0.00,Wunderground v.1.15,2016-08-30 04:20:00,
2016-08-30 07:25:00,76.1,59.3,29.92,North,359,0.0,2.0,56,0.00,,,0.00,Wunderground v.1.15,2016-08-30 04:25:00,
2016-08-30 07:35:00,76.5,60.1,29.93,North,359,0.0,2.0,57,0.00,,,0.00,Wunderground v.1.15,2016-08-30 04:35:00,
2016-08-30 07:40:00,76.5,60.1,29.93,North,359,0.0,2.0,57,0.00,,,0.00,Wunderground v.1.15,2016-08-30 04:40:00,
2016-08-30 07:45:00,76.7,59.8,29.93,North,359,0.0,2.0,56,0.00,,,0.00,Wunderground v.1.15,2016-08-30 04:45:00,
2016-08-30 07:50:00,77.0,60.1,29.93,North,359,0.0,2.0,56,0.00,,,0.00,Wunderground v.1.15,2016-08-30 04:50:00,
2016-08-30 07:55:00,77.2,59.8,29.93,North,359,0.0,2.0,55,0.00,,,0.00,Wunderground v.1.15,2016-08-30 04:55:00,
2016-08-30 08:05:00,77.9,60.4,29.93,North,359,0.0,2.0,55,0.00,,,0.00,Wunderground v.1.15,2016-08-30 05:05:00,
2016-08-30 08:10:00,78.3,60.3,29.93,North,359,0.0,2.0,54,0.00,,,0.00,Wunderground v.1.15,2016-08-30 05:10:00,
2016-08-30 08:20:00,79.6,59.9,29.94,North,359,0.0,2.0,51,0.00,,,0.00,Wunderground v.1.15,2016-08-30 05:20:00,
2016-08-30 08:25:00,80.1,59.8,29.94,North,359,0.0,2.0,50,0.00,,,0.00,Wunderground v.1.15,2016-08-30 05:25:00,
2016-08-30 08:30:00,80.5,60.1,29.94,North,359,0.0,2.0,50,0.00,,,0.00,Wunderground v.1.15,2016-08-30 05:30:00,
2016-08-30 08:40:00,81.1,60.7,29.94,North,359,0.0,2.0,50,0.00,,,0.00,Wunderground v.1.15,2016-08-30 05:40:00,
2016-08-30 08:45:00,80.9,59.9,29.94,North,359,0.0,2.0,49,0.00,,,0.00,Wunderground v.1.15,2016-08-30 05:45:00,
2016-08-30 08:55:00,80.7,59.8,29.94,NNW,337,0.0,2.0,49,0.00,,,0.00,Wunderground v.1.15,2016-08-30 05:55:00,
2016-08-30 09:05:00,81.2,60.8,29.95,NNW,337,0.0,2.0,50,0.00,,,0.00,Wunderground v.1.15,2016-08-30 06:05:00,
2016-08-30 09:14:00,81.2,61.0,29.95,NNW,337,0.0,-999.0,51,-99.99,,,0.00,weatherlink.com 1.10,2016-08-30 06:14:00,
2016-08-30 09:20:00,81.2,58.5,29.95,West,263,1.0,3.0,46,0.00,,,0.00,Wunderground v.1.15,2016-08-30 06:20:00,
2016-08-30 09:28:00,80.5,58.0,29.95,WSW,243,2.0,-999.0,46,-99.99,,,0.00,weatherlink.com 1.10,2016-08-30 06:28:00,
2016-08-30 09:35:00,80.3,58.2,29.95,WSW,240,3.0,3.0,47,0.00,,,0.00,Wunderground v.1.15,2016-08-30 06:35:00,
2016-08-30 09:44:00,79.6,59.0,29.95,SW,232,3.0,-999.0,49,-99.99,,,0.00,weatherlink.com 1.10,2016-08-30 06:44:00,
2016-08-30 09:50:00,79.4,59.1,29.96,SW,216,4.0,4.0,50,0.00,,,0.00,Wunderground v.1.15,2016-08-30 06:50:00,
2016-08-30 09:58:00,79.8,62.0,29.96,South,174,2.0,-999.0,55,-99.99,,,0.00,weatherlink.com 1.10,2016-08-30 06:58:00,
2016-08-30 10:05:00,79.8,62.2,29.96,SW,234,3.0,5.0,55,0.00,,,0.00,Wunderground v.1.15,2016-08-30 07:05:00,
2016-08-30 10:14:00,80.3,62.0,29.96,SSW,208,5.0,-999.0,54,-99.99,,,0.00,weatherlink.com 1.10,2016-08-30 07:14:00,
2016-08-30 10:19:00,80.3,62.1,29.97,SW,219,3.0,5.0,54,0.00,,,0.00,Wunderground v.1.15,2016-08-30 07:19:00,
2016-08-30 10:25:00,80.5,62.3,29.97,SSW,200,3.0,5.0,54,0.00,,,0.00,Wunderground v.1.15,2016-08-30 07:25:00,